Terminal Aerodrome Forecast
Issued by NWS

Home | Current Version | Previous Version | Text Only | Print | Product List | Glossary On
Versions: 1 2 3 4 5 6 7 8 9 10 11 12 13 14 15 16 17 18 19 20 21 22 23 24 25 26 27 28
000
FTUS43 KABR 240540
TAFATY
TAF
KATY 240540Z 2406/2506 VRB03KT 1/4SM FZFG VV002
     FM241500 13006KT 2SM BR OVC003
     FM241700 09007KT 1/2SM SN OVC008
     FM250200 32005KT P6SM BKN010=

USA.gov is the U.S. government's official web portal to all federal, state and local government web resources and services.